CMB826 Details

Departure: Travis Air Force Base (KSUU)
Arrival: Daniel K Inouye International Airport (PHNL) at N/A
Route: BESSA PYE BEBOP R464 BITTA
Notes: USTRANSCOM CONTRACT FLIGHT


Current Weather Information
KSUU 191558Z AUTO 23016KT 10SM CLR 18/13 A2994 RMK AO2 SLP145 T01760125 $
PHNL 191553Z 00000KT 10SM FEW025 24/19 A2996 RMK AO2 SLP144 T02440194